Marionville, Missouri
Current Conditions -  °F | °C
As of 8:52 AM on Wednesday 22 Oct 2014 (Local Time) from KSGF Reporting Station
Clear Clear  
Wind Chill: 53°   Ceiling: Unl
Heat Index: 53°   Visibility: 10mi
Dew Point: 44°   Wind: 16mph
Humidity: 71%   Direction: 140°SE
Pressure: 30.23"   Gusts: NA
Location:  37°N, 93.64°W
Report Text: KSGF 221352Z 14014KT 10SM CLR 12/07 A3023 RMK AO2 SLP237 T01170067
Loading
Personal Weather Stations






























Interactive Weather Map New forecast layout! Learn more

10-Day Weather Forecast

Advertisements
Track Severe Weather on mobile